createdAt,value
2023-03-07T00:00:52.131Z,11.33
2023-03-07T00:03:20.851Z,10.57
2023-03-07T00:05:48.775Z,11.30
2023-03-07T00:08:16.811Z,10.80
2023-03-07T00:10:44.691Z,11.17
2023-03-07T00:13:12.547Z,11.13
2023-03-07T00:15:41.761Z,11.17
2023-03-07T00:18:12.444Z,10.53
2023-03-07T00:20:40.344Z,11.43
2023-03-07T00:23:08.413Z,10.50
2023-03-07T00:25:36.323Z,11.60
2023-03-07T00:28:04.179Z,11.37
2023-03-07T00:30:32.055Z,11.27
2023-03-07T00:33:01.271Z,11.70
2023-03-07T00:35:29.148Z,10.77
2023-03-07T00:37:56.998Z,10.83
2023-03-07T00:40:24.823Z,11.77
2023-03-07T00:42:52.736Z,11.63
2023-03-07T00:45:20.769Z,11.03
2023-03-07T00:47:48.658Z,10.47
2023-03-07T00:50:18.388Z,10.90
2023-03-07T00:52:46.267Z,12.70
2023-03-07T00:55:14.145Z,12.83
2023-03-07T00:57:42.044Z,12.50
2023-03-07T01:00:12.060Z,12.30
2023-03-07T01:02:40.526Z,12.27
2023-03-07T01:05:10.261Z,11.63
2023-03-07T01:07:39.514Z,11.87
2023-03-07T01:10:08.146Z,11.17
2023-03-07T01:12:36.578Z,10.93
2023-03-07T01:15:06.530Z,10.60
2023-03-07T01:17:34.406Z,10.67
2023-03-07T01:20:03.409Z,10.30
2023-03-07T01:22:32.428Z,10.67
2023-03-07T01:25:01.780Z,11.07
2023-03-07T01:27:29.803Z,11.27
2023-03-07T01:29:58.066Z,10.83
2023-03-07T01:32:25.971Z,11.53
2023-03-07T01:34:53.948Z,11.27
2023-03-07T01:37:21.883Z,10.80
2023-03-07T01:39:52.205Z,11.97
2023-03-07T01:42:22.622Z,11.37
2023-03-07T01:45:03.145Z,11.07
2023-03-07T01:47:31.023Z,10.53
2023-03-07T01:50:00.959Z,10.93
2023-03-07T01:52:33.335Z,10.77
2023-03-07T01:55:06.045Z,10.63
2023-03-07T01:57:38.287Z,10.70
2023-03-07T02:00:11.386Z,11.20
2023-03-07T02:02:42.343Z,11.10
2023-03-07T02:05:14.310Z,10.63
2023-03-07T02:07:47.653Z,10.33
2023-03-07T02:10:18.528Z,10.80
2023-03-07T02:12:48.220Z,11.53
2023-03-07T02:15:16.757Z,11.00
2023-03-07T02:17:45.895Z,10.07
2023-03-07T02:20:28.052Z,11.20
2023-03-07T02:22:57.001Z,10.83
2023-03-07T02:25:32.460Z,10.17
2023-03-07T02:28:04.407Z,11.07
2023-03-07T02:30:32.405Z,10.33
2023-03-07T02:33:00.317Z,10.83
2023-03-07T02:35:28.358Z,10.67
2023-03-07T02:38:00.825Z,11.17
2023-03-07T02:40:32.598Z,11.70
2023-03-07T02:43:06.046Z,10.97
2023-03-07T02:45:34.027Z,10.97
2023-03-07T02:48:02.067Z,11.13
2023-03-07T02:50:30.061Z,11.57
2023-03-07T02:52:57.958Z,10.17
2023-03-07T02:55:25.879Z,11.03
2023-03-07T02:57:54.634Z,9.47
2023-03-07T03:00:24.325Z,9.77
2023-03-07T03:02:53.551Z,10.13
2023-03-07T03:05:21.614Z,10.27
2023-03-07T03:07:49.651Z,11.23
2023-03-07T03:10:17.785Z,10.53
2023-03-07T03:12:45.946Z,10.27
2023-03-07T03:15:13.932Z,9.80
2023-03-07T03:17:43.681Z,10.47
2023-03-07T03:20:13.719Z,9.80
2023-03-07T03:22:42.566Z,10.27
2023-03-07T03:25:12.861Z,9.70
2023-03-07T03:27:41.940Z,9.87
2023-03-07T03:30:11.820Z,10.23
2023-03-07T03:32:40.733Z,9.87
2023-03-07T03:35:11.006Z,9.77
2023-03-07T03:37:39.232Z,9.30
2023-03-07T03:40:14.576Z,9.87
2023-03-07T03:42:42.937Z,10.40
2023-03-07T03:45:12.462Z,9.30
2023-03-07T03:47:40.358Z,9.37
2023-03-07T03:50:11.485Z,9.67
2023-03-07T03:52:39.365Z,10.90
2023-03-07T03:55:08.104Z,10.37
2023-03-07T03:57:35.967Z,9.87
2023-03-07T04:00:05.580Z,10.57
2023-03-07T04:02:34.094Z,9.40
2023-03-07T04:05:01.998Z,10.07
2023-03-07T04:07:31.318Z,9.77
2023-03-07T04:09:59.184Z,9.30
2023-03-07T04:12:27.060Z,10.23
2023-03-07T04:14:54.957Z,9.37
2023-03-07T04:17:22.865Z,10.13
2023-03-07T04:19:50.858Z,10.47
2023-03-07T04:22:18.718Z,9.60
2023-03-07T04:24:47.929Z,10.47
2023-03-07T04:27:16.758Z,10.37
2023-03-07T04:29:44.674Z,9.43
2023-03-07T04:32:12.624Z,10.10
2023-03-07T04:34:40.753Z,10.30
2023-03-07T04:37:08.601Z,9.77
2023-03-07T04:39:36.479Z,10.10
2023-03-07T04:42:05.984Z,10.37
2023-03-07T04:44:33.907Z,10.13
2023-03-07T04:47:01.890Z,10.67
2023-03-07T04:49:29.775Z,10.53
2023-03-07T04:51:57.686Z,11.13
2023-03-07T04:54:25.544Z,11.23
2023-03-07T04:56:53.511Z,10.80
2023-03-07T04:59:22.731Z,11.50
2023-03-07T05:01:50.590Z,9.60
2023-03-07T05:04:18.510Z,10.23
2023-03-07T05:06:46.429Z,9.63
2023-03-07T05:09:14.303Z,11.23
2023-03-07T05:11:42.199Z,10.50
2023-03-07T05:14:10.130Z,10.20
2023-03-07T05:16:39.425Z,9.80
2023-03-07T05:19:07.900Z,9.73
2023-03-07T05:21:35.913Z,10.90
2023-03-07T05:24:04.854Z,10.30
2023-03-07T05:26:32.796Z,10.47
2023-03-07T05:29:00.906Z,11.13
2023-03-07T05:31:29.010Z,10.13
2023-03-07T05:33:58.276Z,10.17
2023-03-07T05:36:26.261Z,10.27
2023-03-07T05:38:56.388Z,10.33
2023-03-07T05:41:24.445Z,9.43
2023-03-07T05:43:52.338Z,9.37
2023-03-07T05:46:20.765Z,9.20
2023-03-07T05:48:48.844Z,10.30
2023-03-07T05:51:18.360Z,10.43
2023-03-07T05:53:46.684Z,10.37
2023-03-07T05:56:15.145Z,9.17
2023-03-07T05:58:43.059Z,9.30
2023-03-07T06:01:10.988Z,9.67
2023-03-07T06:03:38.978Z,10.07
2023-03-07T06:06:07.559Z,10.30
2023-03-07T06:08:36.785Z,9.80
2023-03-07T06:11:04.725Z,9.23
2023-03-07T06:13:32.724Z,10.37
2023-03-07T06:16:00.584Z,10.47
2023-03-07T06:18:28.476Z,10.60
2023-03-07T06:20:58.714Z,10.40
2023-03-07T06:23:27.092Z,10.30
2023-03-07T06:25:56.427Z,10.20
2023-03-07T06:28:24.432Z,10.30
2023-03-07T06:30:52.445Z,9.90
2023-03-07T06:33:20.798Z,11.73
2023-03-07T06:35:48.952Z,11.27
2023-03-07T06:38:17.727Z,11.27
2023-03-07T06:40:45.699Z,10.00
2023-03-07T06:43:14.941Z,10.63
2023-03-07T06:45:42.912Z,10.43
2023-03-07T06:48:10.828Z,10.80
2023-03-07T06:50:39.231Z,10.53
2023-03-07T06:53:07.081Z,10.47
2023-03-07T06:55:34.928Z,10.63
2023-03-07T06:58:02.790Z,10.57
2023-03-07T07:00:32.139Z,10.60
2023-03-07T07:03:00.025Z,10.23
2023-03-07T07:05:28.305Z,10.23
2023-03-07T07:07:56.304Z,9.67
2023-03-07T07:10:24.159Z,11.07
2023-03-07T07:12:54.544Z,10.40
2023-03-07T07:15:22.409Z,11.10
2023-03-07T07:17:51.728Z,10.50
2023-03-07T07:20:20.017Z,10.50
2023-03-07T07:22:47.911Z,9.90
2023-03-07T07:25:15.906Z,10.33
2023-03-07T07:27:43.857Z,10.17
2023-03-07T07:30:13.896Z,10.63
2023-03-07T07:32:41.976Z,11.40
2023-03-07T07:35:11.604Z,10.20
2023-03-07T07:37:40.265Z,10.37
2023-03-07T07:40:10.585Z,10.77
2023-03-07T07:42:38.977Z,10.50
2023-03-07T07:45:07.617Z,10.60
2023-03-07T07:47:35.451Z,10.20
2023-03-07T07:50:03.323Z,10.70
2023-03-07T07:52:32.663Z,10.93
2023-03-07T07:55:00.488Z,10.53
2023-03-07T07:57:28.364Z,10.50
2023-03-07T07:59:56.197Z,10.73
2023-03-07T08:02:24.356Z,11.00
2023-03-07T08:04:52.375Z,10.00
2023-03-07T08:07:20.257Z,9.93
2023-03-07T08:09:49.512Z,10.47
2023-03-07T08:12:17.342Z,10.13
2023-03-07T08:14:45.965Z,9.93
2023-03-07T08:17:13.809Z,9.87
2023-03-07T08:19:41.700Z,10.43
2023-03-07T08:22:09.541Z,9.80
2023-03-07T08:24:40.907Z,9.50
2023-03-07T08:27:10.556Z,9.90
2023-03-07T08:29:38.798Z,10.10
2023-03-07T08:32:07.418Z,9.97
2023-03-07T08:34:35.361Z,9.93
2023-03-07T08:37:03.616Z,10.07
2023-03-07T08:39:31.438Z,9.80
2023-03-07T08:41:59.506Z,10.87
2023-03-07T08:44:29.021Z,10.40
2023-03-07T08:46:56.992Z,10.23
2023-03-07T08:49:24.867Z,9.73
2023-03-07T08:51:52.716Z,10.50
2023-03-07T08:54:20.810Z,9.93
2023-03-07T08:56:48.665Z,10.37
2023-03-07T08:59:16.546Z,9.30
2023-03-07T09:01:45.831Z,9.77
2023-03-07T09:04:13.682Z,10.03
2023-03-07T09:06:41.623Z,9.27
2023-03-07T09:09:09.532Z,10.53
2023-03-07T09:11:37.841Z,9.97
2023-03-07T09:14:05.702Z,9.73
2023-03-07T09:16:33.682Z,10.17
2023-03-07T09:19:03.717Z,9.70
2023-03-07T09:21:34.237Z,9.50
2023-03-07T09:24:02.160Z,9.67
2023-03-07T09:26:30.002Z,9.73
2023-03-07T09:28:58.011Z,10.63
2023-03-07T09:31:25.927Z,9.47
2023-03-07T09:33:54.388Z,9.00
2023-03-07T09:36:23.678Z,10.13
2023-03-07T09:38:51.552Z,10.10
2023-03-07T09:41:51.152Z,10.20
2023-03-07T09:44:31.419Z,9.90
2023-03-07T09:47:13.903Z,9.63
2023-03-07T09:49:47.585Z,9.43
2023-03-07T09:52:20.603Z,9.83
2023-03-07T09:54:54.647Z,8.83
2023-03-07T09:57:26.066Z,9.63
2023-03-07T09:59:57.998Z,8.97
2023-03-07T10:02:30.207Z,8.83
2023-03-07T10:05:05.938Z,8.77
2023-03-07T10:07:36.599Z,9.50
2023-03-07T10:10:08.331Z,8.77
2023-03-07T10:12:53.196Z,9.33
2023-03-07T10:15:35.915Z,9.37
2023-03-07T10:18:18.136Z,8.90
2023-03-07T10:20:52.569Z,9.37
2023-03-07T10:23:43.320Z,9.37
2023-03-07T10:26:13.673Z,9.10
2023-03-07T10:28:43.559Z,9.63
2023-03-07T10:31:23.441Z,8.63
2023-03-07T10:33:53.025Z,9.07
2023-03-07T10:36:22.784Z,8.57
2023-03-07T10:39:00.931Z,9.10
2023-03-07T10:41:29.235Z,9.17
2023-03-07T10:43:58.368Z,8.30
2023-03-07T10:46:30.270Z,9.17
2023-03-07T10:49:10.634Z,8.30
2023-03-07T10:51:50.716Z,8.10
2023-03-07T10:54:22.510Z,7.83
2023-03-07T10:57:08.615Z,8.73
2023-03-07T10:59:37.425Z,9.10
2023-03-07T11:02:29.992Z,8.07
2023-03-07T11:04:58.785Z,8.80
2023-03-07T11:07:29.064Z,8.83
2023-03-07T11:10:00.199Z,8.67
2023-03-07T11:12:29.558Z,7.90
2023-03-07T11:15:10.022Z,8.17
2023-03-07T11:17:42.468Z,8.00
2023-03-07T11:20:21.834Z,8.33
2023-03-07T11:22:50.227Z,8.43
2023-03-07T11:25:22.983Z,7.97
2023-03-07T11:27:53.762Z,7.83
2023-03-07T11:30:25.180Z,7.70
2023-03-07T11:33:04.257Z,9.07
2023-03-07T11:35:51.342Z,7.43
2023-03-07T11:38:30.002Z,8.27
2023-03-07T11:41:05.034Z,7.47
2023-03-07T11:43:47.624Z,7.77
2023-03-07T11:46:24.859Z,7.97
2023-03-07T11:49:02.693Z,8.13
2023-03-07T11:51:42.514Z,9.20
2023-03-07T11:54:26.868Z,8.27
2023-03-07T11:56:59.240Z,7.30
2023-03-07T11:59:55.210Z,7.57
2023-03-07T12:02:44.814Z,8.20
2023-03-07T12:05:26.809Z,7.73
2023-03-07T12:08:42.064Z,7.50
2023-03-07T12:11:21.957Z,6.90
2023-03-07T12:14:00.329Z,7.03
2023-03-07T12:16:40.148Z,7.80
2023-03-07T12:19:21.929Z,7.90
2023-03-07T12:22:28.506Z,8.90
2023-03-07T12:25:06.698Z,6.97
2023-03-07T12:27:38.044Z,7.10
2023-03-07T12:30:16.609Z,7.47
2023-03-07T12:32:44.937Z,7.60
2023-03-07T12:35:23.706Z,7.43
2023-03-07T12:37:59.879Z,7.43
2023-03-07T12:40:35.115Z,6.93
2023-03-07T12:43:11.846Z,7.20
2023-03-07T12:45:46.837Z,7.23
2023-03-07T12:48:23.577Z,7.50
2023-03-07T12:50:57.386Z,7.43
2023-03-07T12:53:34.840Z,8.00
2023-03-07T12:56:07.244Z,7.57
2023-03-07T12:58:41.392Z,7.07
2023-03-07T13:01:15.603Z,7.50
2023-03-07T13:03:51.123Z,7.40
2023-03-07T13:06:20.785Z,7.83
2023-03-07T13:08:51.324Z,6.80
2023-03-07T13:11:22.827Z,7.23
2023-03-07T13:13:58.454Z,7.43
2023-03-07T13:16:39.907Z,7.87
2023-03-07T13:19:51.573Z,6.90
2023-03-07T13:22:57.680Z,7.67
2023-03-07T13:25:51.847Z,8.73
2023-03-07T13:28:48.160Z,7.50
2023-03-07T13:31:29.221Z,7.50
2023-03-07T13:34:39.242Z,7.10
2023-03-07T13:37:50.607Z,6.97
2023-03-07T13:40:47.925Z,6.80
2023-03-07T13:43:49.518Z,6.70
2023-03-07T13:46:51.843Z,6.73
2023-03-07T13:49:46.998Z,6.63
2023-03-07T13:52:36.639Z,6.80
2023-03-07T13:55:15.270Z,6.40
2023-03-07T13:57:44.662Z,7.13
2023-03-07T14:00:24.829Z,6.83
2023-03-07T14:02:54.561Z,7.47
2023-03-07T14:05:24.259Z,7.53
2023-03-07T14:07:53.518Z,7.23
2023-03-07T14:10:27.933Z,7.50
2023-03-07T14:13:32.030Z,7.80
2023-03-07T14:16:11.502Z,7.53
2023-03-07T14:18:51.435Z,7.20
2023-03-07T14:21:30.245Z,6.83
2023-03-07T14:24:25.560Z,6.57
2023-03-07T14:26:58.204Z,7.40
2023-03-07T14:29:26.835Z,6.87
2023-03-07T14:31:56.981Z,7.00
2023-03-07T14:34:29.128Z,7.13
2023-03-07T14:37:01.139Z,7.43
2023-03-07T14:39:42.976Z,7.37
2023-03-07T14:42:22.938Z,7.47
2023-03-07T14:45:07.740Z,6.97
2023-03-07T14:48:09.645Z,7.43
2023-03-07T14:50:43.939Z,6.87
2023-03-07T14:53:20.347Z,7.57
2023-03-07T14:55:52.521Z,7.30
2023-03-07T14:58:22.953Z,7.37
2023-03-07T15:00:59.104Z,7.50
2023-03-07T15:03:27.772Z,7.30
2023-03-07T15:05:57.736Z,7.23
2023-03-07T15:08:29.824Z,8.30
2023-03-07T15:11:03.462Z,6.90
2023-03-07T15:13:37.252Z,6.67
2023-03-07T15:16:10.109Z,7.97
2023-03-07T15:18:41.465Z,7.60
2023-03-07T15:21:15.035Z,6.53
2023-03-07T15:23:44.490Z,6.90
2023-03-07T15:26:21.297Z,6.93
2023-03-07T15:28:49.875Z,6.87
2023-03-07T15:31:17.797Z,6.97
2023-03-07T15:33:45.763Z,6.57
2023-03-07T15:36:27.649Z,7.47
2023-03-07T15:39:25.001Z,7.60
2023-03-07T15:42:01.357Z,6.70
2023-03-07T15:44:29.294Z,6.97
2023-03-07T15:47:00.217Z,6.10
2023-03-07T15:49:35.127Z,5.83
2023-03-07T15:52:03.048Z,5.80
2023-03-07T15:54:36.401Z,6.13
2023-03-07T15:57:06.941Z,6.50
2023-03-07T15:59:38.161Z,6.60
2023-03-07T16:02:45.692Z,6.27
2023-03-07T16:05:32.929Z,6.50
2023-03-07T16:08:01.223Z,7.03
2023-03-07T16:10:32.956Z,6.20
2023-03-07T16:13:02.206Z,6.93
2023-03-07T16:15:30.754Z,6.20
2023-03-07T16:17:58.865Z,6.83
2023-03-07T16:20:29.101Z,6.13
2023-03-07T16:22:56.965Z,6.37
2023-03-07T16:25:27.654Z,6.20
2023-03-07T16:27:59.139Z,6.10
2023-03-07T16:30:29.714Z,6.43
2023-03-07T16:32:57.863Z,5.97
2023-03-07T16:35:27.877Z,6.53
2023-03-07T16:37:56.549Z,6.20
2023-03-07T16:40:26.290Z,4.97
2023-03-07T16:42:54.269Z,6.30
2023-03-07T16:45:26.937Z,5.07
2023-03-07T16:47:56.693Z,5.93
2023-03-07T16:50:26.820Z,5.13
2023-03-07T16:52:54.737Z,5.43
2023-03-07T16:55:23.372Z,5.60
2023-03-07T16:57:54.724Z,5.30
2023-03-07T17:00:26.550Z,5.83
2023-03-07T17:02:56.257Z,6.30
2023-03-07T17:05:25.832Z,5.70
2023-03-07T17:07:54.382Z,7.17
2023-03-07T17:10:23.057Z,6.30
2023-03-07T17:12:51.737Z,6.53
2023-03-07T17:15:22.887Z,6.23
2023-03-07T17:17:52.193Z,6.70
2023-03-07T17:20:21.349Z,7.00
2023-03-07T17:22:50.501Z,7.50
2023-03-07T17:25:18.553Z,8.70
2023-03-07T17:27:50.123Z,8.23
2023-03-07T17:30:21.625Z,7.50
2023-03-07T17:32:49.636Z,6.87
2023-03-07T17:35:19.497Z,6.70
2023-03-07T17:37:48.714Z,6.60
2023-03-07T17:40:16.924Z,6.17
2023-03-07T17:42:45.617Z,6.53
2023-03-07T17:45:14.517Z,6.30
2023-03-07T17:47:42.416Z,6.47
2023-03-07T17:50:11.554Z,7.73
2023-03-07T17:52:40.834Z,6.80
2023-03-07T17:55:11.088Z,6.33
2023-03-07T17:57:38.958Z,6.67
2023-03-07T18:00:13.887Z,5.90
2023-03-07T18:02:43.711Z,5.73
2023-03-07T18:05:12.999Z,6.03
2023-03-07T18:07:42.956Z,6.00
2023-03-07T18:10:12.669Z,6.30
2023-03-07T18:12:40.730Z,6.07
2023-03-07T18:15:13.179Z,6.27
2023-03-07T18:17:48.240Z,5.70
2023-03-07T18:20:18.323Z,6.10
2023-03-07T18:22:47.621Z,6.90
2023-03-07T18:25:17.125Z,6.40
2023-03-07T18:27:45.676Z,6.50
2023-03-07T18:30:15.017Z,6.57
2023-03-07T18:32:42.938Z,6.33
2023-03-07T18:35:11.729Z,6.67
2023-03-07T18:37:39.597Z,6.27
2023-03-07T18:40:10.501Z,6.43
2023-03-07T18:42:39.261Z,6.17
2023-03-07T18:45:08.387Z,6.07
2023-03-07T18:47:36.371Z,6.57
2023-03-07T18:50:04.268Z,5.87
2023-03-07T18:52:32.099Z,6.80
2023-03-07T18:54:59.965Z,6.53
2023-03-07T18:57:29.222Z,6.53
2023-03-07T18:59:57.333Z,5.07
2023-03-07T19:02:25.252Z,5.43
2023-03-07T19:04:54.541Z,6.00
2023-03-07T19:07:23.372Z,5.77
2023-03-07T19:09:53.582Z,6.40
2023-03-07T19:12:21.822Z,5.67
2023-03-07T19:14:51.160Z,6.03
2023-03-07T19:17:19.018Z,5.43
2023-03-07T19:19:47.325Z,6.10
2023-03-07T19:22:15.264Z,5.83
2023-03-07T19:24:44.551Z,5.83
2023-03-07T19:27:12.417Z,6.03
2023-03-07T19:29:40.288Z,5.37
2023-03-07T19:32:09.898Z,5.43
2023-03-07T19:34:37.889Z,6.10
2023-03-07T19:37:05.748Z,6.03
2023-03-07T19:39:34.253Z,5.67
2023-03-07T19:42:04.358Z,5.20
2023-03-07T19:44:32.209Z,5.93
2023-03-07T19:47:00.122Z,5.77
2023-03-07T19:49:29.529Z,5.63
2023-03-07T19:51:57.438Z,6.10
2023-03-07T19:54:25.776Z,5.43
2023-03-07T19:56:53.815Z,5.20
2023-03-07T19:59:21.877Z,5.00
2023-03-07T20:01:49.862Z,5.03
2023-03-07T20:04:18.659Z,5.27
2023-03-07T20:06:47.941Z,4.33
2023-03-07T20:09:15.797Z,4.70
2023-03-07T20:11:43.945Z,4.70
2023-03-07T20:14:13.139Z,5.40
2023-03-07T20:16:41.183Z,5.23
2023-03-07T20:19:10.732Z,5.17
2023-03-07T20:21:49.686Z,5.57
2023-03-07T20:24:19.479Z,6.20
2023-03-07T20:26:48.259Z,4.97
2023-03-07T20:29:16.331Z,5.37
2023-03-07T20:31:44.388Z,5.27
2023-03-07T20:34:12.383Z,5.67
2023-03-07T20:36:40.309Z,5.40
2023-03-07T20:39:13.267Z,4.90
2023-03-07T20:41:43.653Z,5.27
2023-03-07T20:44:14.199Z,5.17
2023-03-07T20:46:42.937Z,4.80
2023-03-07T20:49:13.296Z,4.63
2023-03-07T20:51:42.166Z,4.57
2023-03-07T20:54:13.031Z,5.07
2023-03-07T20:56:42.374Z,5.17
2023-03-07T20:59:13.439Z,4.80
2023-03-07T21:01:41.528Z,5.10
2023-03-07T21:04:12.376Z,4.87
2023-03-07T21:06:41.861Z,4.80
2023-03-07T21:09:10.891Z,4.40
2023-03-07T21:11:41.174Z,4.50
2023-03-07T21:14:10.438Z,4.87
2023-03-07T21:16:38.613Z,4.97
2023-03-07T21:19:08.581Z,4.87
2023-03-07T21:21:36.929Z,4.97
2023-03-07T21:24:05.388Z,4.73
2023-03-07T21:26:34.591Z,4.90
2023-03-07T21:29:03.808Z,4.73
2023-03-07T21:31:35.302Z,4.47
2023-03-07T21:34:04.938Z,5.00
2023-03-07T21:36:33.363Z,5.30
2023-03-07T21:39:02.662Z,5.43
2023-03-07T21:41:30.738Z,5.40
2023-03-07T21:43:59.374Z,4.90
2023-03-07T21:46:27.761Z,5.10
2023-03-07T21:48:59.874Z,5.13
2023-03-07T21:51:27.761Z,4.90
2023-03-07T21:53:55.660Z,5.10
2023-03-07T21:56:23.926Z,5.00
2023-03-07T21:58:52.489Z,4.70
2023-03-07T22:01:22.169Z,5.30
2023-03-07T22:03:53.186Z,4.80
2023-03-07T22:06:23.501Z,4.33
2023-03-07T22:08:51.487Z,5.43
2023-03-07T22:11:19.537Z,5.00
2023-03-07T22:13:47.419Z,4.80
2023-03-07T22:16:17.503Z,4.97
2023-03-07T22:18:45.704Z,4.67
2023-03-07T22:21:17.117Z,5.17
2023-03-07T22:23:46.456Z,5.03
2023-03-07T22:26:14.885Z,4.90
2023-03-07T22:28:42.962Z,4.77
2023-03-07T22:31:13.010Z,5.20
2023-03-07T22:33:41.422Z,4.90
2023-03-07T22:36:12.798Z,5.20
2023-03-07T22:38:41.690Z,5.30
2023-03-07T22:41:13.789Z,4.80
2023-03-07T22:43:42.361Z,4.70
2023-03-07T22:46:11.264Z,4.20
2023-03-07T22:48:39.310Z,4.70
2023-03-07T22:51:12.808Z,4.97
2023-03-07T22:53:40.924Z,5.43
2023-03-07T22:56:15.629Z,5.13
2023-03-07T22:58:43.827Z,4.87
2023-03-07T23:01:14.176Z,5.57
2023-03-07T23:03:42.186Z,5.13
2023-03-07T23:06:10.212Z,4.60
2023-03-07T23:08:38.047Z,4.73
2023-03-07T23:11:07.735Z,5.10
2023-03-07T23:13:37.632Z,4.70
2023-03-07T23:16:08.580Z,4.87
2023-03-07T23:18:36.835Z,5.00
2023-03-07T23:21:05.438Z,4.50
2023-03-07T23:23:33.376Z,4.63
2023-03-07T23:26:01.553Z,5.30
2023-03-07T23:28:29.635Z,4.90
2023-03-07T23:30:58.903Z,5.00
2023-03-07T23:33:27.294Z,4.90
2023-03-07T23:35:55.191Z,5.27
2023-03-07T23:38:23.090Z,5.50
2023-03-07T23:40:51.220Z,5.27
2023-03-07T23:43:19.100Z,4.97
2023-03-07T23:45:47.101Z,4.87
2023-03-07T23:48:16.456Z,5.03
2023-03-07T23:50:44.846Z,4.93
2023-03-07T23:53:12.742Z,4.60
2023-03-07T23:55:41.690Z,5.10
2023-03-07T23:58:09.686Z,4.67
